sensor_id;sensor_type;location;lat;lon;timestamp;P1;durP1;ratioP1;P2;durP2;ratioP2
14722;SDS011;7452;55.594;12.986;2022-10-17T00:01:34;11.90;;;2.80;;
14722;SDS011;7452;55.594;12.986;2022-10-17T00:04:01;13.63;;;2.97;;
14722;SDS011;7452;55.594;12.986;2022-10-17T00:06:32;14.50;;;3.67;;
14722;SDS011;7452;55.594;12.986;2022-10-17T00:09:01;20.83;;;3.17;;
14722;SDS011;7452;55.594;12.986;2022-10-17T00:11:30;11.97;;;2.47;;
14722;SDS011;7452;55.594;12.986;2022-10-17T00:14:01;11.23;;;2.70;;
14722;SDS011;7452;55.594;12.986;2022-10-17T00:16:30;11.17;;;2.80;;
14722;SDS011;7452;55.594;12.986;2022-10-17T00:19:01;15.20;;;2.97;;
14722;SDS011;7452;55.594;12.986;2022-10-17T00:21:31;14.83;;;2.97;;
14722;SDS011;7452;55.594;12.986;2022-10-17T00:23:59;14.00;;;3.03;;
14722;SDS011;7452;55.594;12.986;2022-10-17T00:26:29;16.13;;;3.80;;
14722;SDS011;7452;55.594;12.986;2022-10-17T00:28:59;11.93;;;2.63;;
14722;SDS011;7452;55.594;12.986;2022-10-17T00:31:26;11.23;;;2.80;;
14722;SDS011;7452;55.594;12.986;2022-10-17T00:33:54;14.83;;;2.90;;
14722;SDS011;7452;55.594;12.986;2022-10-17T00:36:22;12.30;;;3.40;;
14722;SDS011;7452;55.594;12.986;2022-10-17T00:38:52;14.53;;;2.93;;
14722;SDS011;7452;55.594;12.986;2022-10-17T00:41:22;18.10;;;3.77;;
14722;SDS011;7452;55.594;12.986;2022-10-17T00:43:55;14.83;;;2.90;;
14722;SDS011;7452;55.594;12.986;2022-10-17T00:46:28;10.03;;;3.17;;
14722;SDS011;7452;55.594;12.986;2022-10-17T00:48:57;14.47;;;3.73;;
14722;SDS011;7452;55.594;12.986;2022-10-17T00:51:31;13.17;;;2.73;;
14722;SDS011;7452;55.594;12.986;2022-10-17T00:54:07;11.90;;;2.83;;
14722;SDS011;7452;55.594;12.986;2022-10-17T00:56:36;10.40;;;2.63;;
14722;SDS011;7452;55.594;12.986;2022-10-17T00:59:06;15.53;;;3.27;;
14722;SDS011;7452;55.594;12.986;2022-10-17T01:01:40;13.03;;;3.17;;
14722;SDS011;7452;55.594;12.986;2022-10-17T01:04:16;12.80;;;2.80;;
14722;SDS011;7452;55.594;12.986;2022-10-17T01:06:47;12.33;;;2.93;;
14722;SDS011;7452;55.594;12.986;2022-10-17T01:09:15;10.00;;;2.83;;
14722;SDS011;7452;55.594;12.986;2022-10-17T01:11:44;12.67;;;3.63;;
14722;SDS011;7452;55.594;12.986;2022-10-17T01:14:17;13.37;;;2.80;;
14722;SDS011;7452;55.594;12.986;2022-10-17T01:16:55;16.17;;;3.50;;
14722;SDS011;7452;55.594;12.986;2022-10-17T01:19:33;12.10;;;2.70;;
14722;SDS011;7452;55.594;12.986;2022-10-17T01:22:17;8.13;;;2.70;;
14722;SDS011;7452;55.594;12.986;2022-10-17T01:24:54;15.20;;;2.97;;
14722;SDS011;7452;55.594;12.986;2022-10-17T01:27:47;11.40;;;2.73;;
14722;SDS011;7452;55.594;12.986;2022-10-17T01:33:25;16.17;;;3.57;;
14722;SDS011;7452;55.594;12.986;2022-10-17T01:35:58;10.73;;;2.93;;
14722;SDS011;7452;55.594;12.986;2022-10-17T01:38:35;13.00;;;2.90;;
14722;SDS011;7452;55.594;12.986;2022-10-17T01:41:10;18.30;;;3.20;;
14722;SDS011;7452;55.594;12.986;2022-10-17T01:43:44;14.00;;;3.20;;
14722;SDS011;7452;55.594;12.986;2022-10-17T01:46:19;13.97;;;3.60;;
14722;SDS011;7452;55.594;12.986;2022-10-17T01:48:53;11.80;;;3.00;;
14722;SDS011;7452;55.594;12.986;2022-10-17T01:51:23;11.50;;;3.03;;
14722;SDS011;7452;55.594;12.986;2022-10-17T01:53:56;13.70;;;3.33;;
14722;SDS011;7452;55.594;12.986;2022-10-17T01:56:26;15.80;;;3.27;;
14722;SDS011;7452;55.594;12.986;2022-10-17T01:58:59;15.47;;;3.00;;
14722;SDS011;7452;55.594;12.986;2022-10-17T02:01:32;22.40;;;3.77;;
14722;SDS011;7452;55.594;12.986;2022-10-17T02:04:03;18.87;;;3.50;;
14722;SDS011;7452;55.594;12.986;2022-10-17T02:06:34;13.23;;;3.40;;
14722;SDS011;7452;55.594;12.986;2022-10-17T02:09:14;14.70;;;3.20;;
14722;SDS011;7452;55.594;12.986;2022-10-17T02:11:56;10.83;;;3.23;;
14722;SDS011;7452;55.594;12.986;2022-10-17T02:14:39;20.07;;;3.17;;
14722;SDS011;7452;55.594;12.986;2022-10-17T02:17:21;16.97;;;3.03;;
14722;SDS011;7452;55.594;12.986;2022-10-17T02:19:57;17.07;;;3.70;;
14722;SDS011;7452;55.594;12.986;2022-10-17T02:22:36;15.00;;;3.27;;
14722;SDS011;7452;55.594;12.986;2022-10-17T02:25:11;13.40;;;2.73;;
14722;SDS011;7452;55.594;12.986;2022-10-17T02:27:47;17.10;;;3.77;;
14722;SDS011;7452;55.594;12.986;2022-10-17T02:30:20;12.17;;;3.40;;
14722;SDS011;7452;55.594;12.986;2022-10-17T02:33:04;13.83;;;2.77;;
14722;SDS011;7452;55.594;12.986;2022-10-17T02:35:35;13.63;;;2.83;;
14722;SDS011;7452;55.594;12.986;2022-10-17T02:38:14;14.67;;;3.30;;
14722;SDS011;7452;55.594;12.986;2022-10-17T02:40:45;15.10;;;3.23;;
14722;SDS011;7452;55.594;12.986;2022-10-17T02:43:15;13.50;;;3.33;;
14722;SDS011;7452;55.594;12.986;2022-10-17T02:45:43;13.73;;;3.70;;
14722;SDS011;7452;55.594;12.986;2022-10-17T02:48:21;18.97;;;3.23;;
14722;SDS011;7452;55.594;12.986;2022-10-17T02:50:56;12.67;;;3.20;;
14722;SDS011;7452;55.594;12.986;2022-10-17T02:53:28;19.33;;;3.60;;
14722;SDS011;7452;55.594;12.986;2022-10-17T02:56:02;13.83;;;3.17;;
14722;SDS011;7452;55.594;12.986;2022-10-17T02:58:34;13.27;;;3.30;;
14722;SDS011;7452;55.594;12.986;2022-10-17T03:01:06;15.90;;;3.00;;
14722;SDS011;7452;55.594;12.986;2022-10-17T03:03:38;14.47;;;3.40;;
14722;SDS011;7452;55.594;12.986;2022-10-17T03:06:08;21.07;;;3.33;;
14722;SDS011;7452;55.594;12.986;2022-10-17T03:08:36;15.93;;;3.10;;
14722;SDS011;7452;55.594;12.986;2022-10-17T03:11:05;12.50;;;2.90;;
14722;SDS011;7452;55.594;12.986;2022-10-17T03:13:35;11.20;;;3.23;;
14722;SDS011;7452;55.594;12.986;2022-10-17T03:16:09;10.23;;;3.00;;
14722;SDS011;7452;55.594;12.986;2022-10-17T03:18:39;10.30;;;3.20;;
14722;SDS011;7452;55.594;12.986;2022-10-17T03:21:07;11.57;;;3.00;;
14722;SDS011;7452;55.594;12.986;2022-10-17T03:23:36;17.50;;;3.33;;
14722;SDS011;7452;55.594;12.986;2022-10-17T03:26:10;12.03;;;3.37;;
14722;SDS011;7452;55.594;12.986;2022-10-17T03:28:39;9.97;;;3.03;;
14722;SDS011;7452;55.594;12.986;2022-10-17T03:31:12;19.80;;;3.80;;
14722;SDS011;7452;55.594;12.986;2022-10-17T03:33:44;17.10;;;3.17;;
14722;SDS011;7452;55.594;12.986;2022-10-17T03:36:13;15.50;;;2.90;;
14722;SDS011;7452;55.594;12.986;2022-10-17T03:38:41;13.27;;;2.77;;
14722;SDS011;7452;55.594;12.986;2022-10-17T03:41:19;14.47;;;2.93;;
14722;SDS011;7452;55.594;12.986;2022-10-17T03:43:46;16.90;;;3.40;;
14722;SDS011;7452;55.594;12.986;2022-10-17T03:46:15;17.97;;;3.93;;
14722;SDS011;7452;55.594;12.986;2022-10-17T03:48:45;18.57;;;3.67;;
14722;SDS011;7452;55.594;12.986;2022-10-17T03:51:13;16.43;;;4.03;;
14722;SDS011;7452;55.594;12.986;2022-10-17T03:53:42;13.93;;;4.00;;
14722;SDS011;7452;55.594;12.986;2022-10-17T03:56:10;12.40;;;3.23;;
14722;SDS011;7452;55.594;12.986;2022-10-17T03:58:39;15.07;;;3.23;;
14722;SDS011;7452;55.594;12.986;2022-10-17T04:01:07;14.63;;;2.77;;
14722;SDS011;7452;55.594;12.986;2022-10-17T04:03:37;11.97;;;3.40;;
14722;SDS011;7452;55.594;12.986;2022-10-17T04:06:08;14.43;;;3.43;;
14722;SDS011;7452;55.594;12.986;2022-10-17T04:08:38;11.13;;;2.90;;
14722;SDS011;7452;55.594;12.986;2022-10-17T04:11:08;14.93;;;3.10;;
14722;SDS011;7452;55.594;12.986;2022-10-17T04:13:40;13.53;;;3.20;;
14722;SDS011;7452;55.594;12.986;2022-10-17T04:16:09;18.10;;;3.80;;
14722;SDS011;7452;55.594;12.986;2022-10-17T04:18:41;20.97;;;3.77;;
14722;SDS011;7452;55.594;12.986;2022-10-17T04:21:18;12.37;;;3.50;;
14722;SDS011;7452;55.594;12.986;2022-10-17T04:23:45;11.37;;;2.90;;
14722;SDS011;7452;55.594;12.986;2022-10-17T04:26:13;13.83;;;3.70;;
14722;SDS011;7452;55.594;12.986;2022-10-17T04:28:41;14.77;;;3.53;;
14722;SDS011;7452;55.594;12.986;2022-10-17T04:31:12;13.83;;;3.20;;
14722;SDS011;7452;55.594;12.986;2022-10-17T04:33:40;13.43;;;3.50;;
14722;SDS011;7452;55.594;12.986;2022-10-17T04:36:09;15.60;;;3.20;;
14722;SDS011;7452;55.594;12.986;2022-10-17T04:38:41;13.80;;;2.97;;
14722;SDS011;7452;55.594;12.986;2022-10-17T04:41:10;12.20;;;3.20;;
14722;SDS011;7452;55.594;12.986;2022-10-17T04:43:41;16.63;;;3.83;;
14722;SDS011;7452;55.594;12.986;2022-10-17T04:46:09;10.93;;;3.20;;
14722;SDS011;7452;55.594;12.986;2022-10-17T04:48:42;17.97;;;3.83;;
14722;SDS011;7452;55.594;12.986;2022-10-17T04:51:09;15.33;;;3.37;;
14722;SDS011;7452;55.594;12.986;2022-10-17T04:53:43;14.53;;;3.40;;
14722;SDS011;7452;55.594;12.986;2022-10-17T04:56:11;15.53;;;4.03;;
14722;SDS011;7452;55.594;12.986;2022-10-17T04:58:42;13.60;;;4.00;;
14722;SDS011;7452;55.594;12.986;2022-10-17T05:01:11;10.77;;;3.43;;
14722;SDS011;7452;55.594;12.986;2022-10-17T05:03:40;13.73;;;3.37;;
14722;SDS011;7452;55.594;12.986;2022-10-17T05:06:08;13.03;;;3.23;;
14722;SDS011;7452;55.594;12.986;2022-10-17T05:08:37;17.47;;;4.03;;
14722;SDS011;7452;55.594;12.986;2022-10-17T05:11:11;14.83;;;3.77;;
14722;SDS011;7452;55.594;12.986;2022-10-17T05:13:48;13.50;;;3.70;;
14722;SDS011;7452;55.594;12.986;2022-10-17T05:16:17;13.57;;;4.00;;
14722;SDS011;7452;55.594;12.986;2022-10-17T05:18:48;14.27;;;3.53;;
14722;SDS011;7452;55.594;12.986;2022-10-17T05:21:17;13.53;;;3.40;;
14722;SDS011;7452;55.594;12.986;2022-10-17T05:23:44;16.33;;;4.37;;
14722;SDS011;7452;55.594;12.986;2022-10-17T05:26:16;22.47;;;4.20;;
14722;SDS011;7452;55.594;12.986;2022-10-17T05:28:43;15.33;;;4.23;;
14722;SDS011;7452;55.594;12.986;2022-10-17T05:31:12;14.00;;;3.50;;
14722;SDS011;7452;55.594;12.986;2022-10-17T05:33:40;15.00;;;4.10;;
14722;SDS011;7452;55.594;12.986;2022-10-17T05:36:09;18.97;;;4.23;;
14722;SDS011;7452;55.594;12.986;2022-10-17T05:38:38;23.33;;;4.40;;
14722;SDS011;7452;55.594;12.986;2022-10-17T05:41:05;18.00;;;4.13;;
14722;SDS011;7452;55.594;12.986;2022-10-17T05:43:34;13.27;;;4.17;;
14722;SDS011;7452;55.594;12.986;2022-10-17T05:46:03;13.90;;;4.30;;
14722;SDS011;7452;55.594;12.986;2022-10-17T05:48:33;16.60;;;5.00;;
14722;SDS011;7452;55.594;12.986;2022-10-17T05:51:03;16.40;;;4.70;;
14722;SDS011;7452;55.594;12.986;2022-10-17T05:53:35;13.87;;;4.70;;
14722;SDS011;7452;55.594;12.986;2022-10-17T05:56:05;17.47;;;4.73;;
14722;SDS011;7452;55.594;12.986;2022-10-17T05:58:38;15.37;;;5.23;;
14722;SDS011;7452;55.594;12.986;2022-10-17T06:01:06;12.07;;;4.70;;
14722;SDS011;7452;55.594;12.986;2022-10-17T06:03:36;15.73;;;4.90;;
14722;SDS011;7452;55.594;12.986;2022-10-17T06:06:04;18.23;;;5.97;;
14722;SDS011;7452;55.594;12.986;2022-10-17T06:08:32;16.53;;;5.47;;
14722;SDS011;7452;55.594;12.986;2022-10-17T06:11:00;21.10;;;5.80;;
14722;SDS011;7452;55.594;12.986;2022-10-17T06:13:29;12.63;;;4.40;;
14722;SDS011;7452;55.594;12.986;2022-10-17T06:15:58;17.80;;;5.53;;
14722;SDS011;7452;55.594;12.986;2022-10-17T06:18:29;16.07;;;5.20;;
14722;SDS011;7452;55.594;12.986;2022-10-17T06:21:04;19.10;;;6.47;;
14722;SDS011;7452;55.594;12.986;2022-10-17T06:23:34;17.77;;;5.27;;
14722;SDS011;7452;55.594;12.986;2022-10-17T06:26:03;21.07;;;5.37;;
14722;SDS011;7452;55.594;12.986;2022-10-17T06:28:31;19.20;;;4.70;;
14722;SDS011;7452;55.594;12.986;2022-10-17T06:31:05;13.20;;;4.73;;
14722;SDS011;7452;55.594;12.986;2022-10-17T06:33:33;12.83;;;4.77;;
14722;SDS011;7452;55.594;12.986;2022-10-17T06:36:01;14.27;;;5.47;;
14722;SDS011;7452;55.594;12.986;2022-10-17T06:38:30;12.93;;;4.27;;
14722;SDS011;7452;55.594;12.986;2022-10-17T06:41:03;14.53;;;4.10;;
14722;SDS011;7452;55.594;12.986;2022-10-17T06:43:34;19.20;;;4.70;;
14722;SDS011;7452;55.594;12.986;2022-10-17T06:46:06;10.00;;;4.07;;
14722;SDS011;7452;55.594;12.986;2022-10-17T06:48:39;13.87;;;4.27;;
14722;SDS011;7452;55.594;12.986;2022-10-17T06:51:08;15.87;;;4.03;;
14722;SDS011;7452;55.594;12.986;2022-10-17T06:53:38;13.90;;;4.50;;
14722;SDS011;7452;55.594;12.986;2022-10-17T06:56:09;12.60;;;3.80;;
14722;SDS011;7452;55.594;12.986;2022-10-17T06:58:39;18.30;;;4.50;;
14722;SDS011;7452;55.594;12.986;2022-10-17T07:01:09;14.50;;;3.20;;
14722;SDS011;7452;55.594;12.986;2022-10-17T07:03:40;12.57;;;3.80;;
14722;SDS011;7452;55.594;12.986;2022-10-17T07:06:09;15.43;;;3.30;;
14722;SDS011;7452;55.594;12.986;2022-10-17T07:08:41;15.90;;;3.97;;
14722;SDS011;7452;55.594;12.986;2022-10-17T07:11:11;11.23;;;3.37;;
14722;SDS011;7452;55.594;12.986;2022-10-17T07:13:40;17.03;;;3.17;;
14722;SDS011;7452;55.594;12.986;2022-10-17T07:16:09;18.33;;;3.70;;
14722;SDS011;7452;55.594;12.986;2022-10-17T07:18:42;13.03;;;3.10;;
14722;SDS011;7452;55.594;12.986;2022-10-17T07:21:13;14.93;;;4.27;;
14722;SDS011;7452;55.594;12.986;2022-10-17T07:23:41;17.00;;;3.50;;
14722;SDS011;7452;55.594;12.986;2022-10-17T07:26:12;11.70;;;2.80;;
14722;SDS011;7452;55.594;12.986;2022-10-17T07:28:44;13.00;;;3.67;;
14722;SDS011;7452;55.594;12.986;2022-10-17T07:31:16;11.73;;;3.43;;
14722;SDS011;7452;55.594;12.986;2022-10-17T07:33:45;11.83;;;3.30;;
14722;SDS011;7452;55.594;12.986;2022-10-17T07:36:15;10.27;;;3.03;;
14722;SDS011;7452;55.594;12.986;2022-10-17T07:38:46;12.77;;;3.63;;
14722;SDS011;7452;55.594;12.986;2022-10-17T07:41:13;19.17;;;4.07;;
14722;SDS011;7452;55.594;12.986;2022-10-17T07:43:41;12.90;;;2.93;;
14722;SDS011;7452;55.594;12.986;2022-10-17T07:46:08;12.90;;;3.37;;
14722;SDS011;7452;55.594;12.986;2022-10-17T07:48:38;13.33;;;3.33;;
14722;SDS011;7452;55.594;12.986;2022-10-17T07:51:06;17.10;;;3.47;;
14722;SDS011;7452;55.594;12.986;2022-10-17T07:53:40;14.17;;;3.27;;
14722;SDS011;7452;55.594;12.986;2022-10-17T07:56:09;10.80;;;3.00;;
14722;SDS011;7452;55.594;12.986;2022-10-17T07:58:40;12.83;;;3.57;;
14722;SDS011;7452;55.594;12.986;2022-10-17T08:01:08;10.90;;;3.60;;
14722;SDS011;7452;55.594;12.986;2022-10-17T08:03:40;10.63;;;2.87;;
14722;SDS011;7452;55.594;12.986;2022-10-17T08:06:09;12.50;;;2.63;;
14722;SDS011;7452;55.594;12.986;2022-10-17T08:08:37;10.60;;;3.17;;
14722;SDS011;7452;55.594;12.986;2022-10-17T08:11:05;15.70;;;3.27;;
14722;SDS011;7452;55.594;12.986;2022-10-17T08:13:36;11.40;;;3.33;;
14722;SDS011;7452;55.594;12.986;2022-10-17T08:16:05;12.40;;;2.70;;
14722;SDS011;7452;55.594;12.986;2022-10-17T08:18:34;11.53;;;2.73;;
14722;SDS011;7452;55.594;12.986;2022-10-17T08:21:08;10.40;;;2.80;;
14722;SDS011;7452;55.594;12.986;2022-10-17T08:23:38;7.47;;;2.47;;
14722;SDS011;7452;55.594;12.986;2022-10-17T08:26:06;13.00;;;3.17;;
14722;SDS011;7452;55.594;12.986;2022-10-17T08:28:36;17.33;;;2.80;;
14722;SDS011;7452;55.594;12.986;2022-10-17T08:31:04;9.43;;;3.00;;
14722;SDS011;7452;55.594;12.986;2022-10-17T08:33:33;9.00;;;2.53;;
14722;SDS011;7452;55.594;12.986;2022-10-17T08:36:02;9.57;;;2.73;;
14722;SDS011;7452;55.594;12.986;2022-10-17T08:38:34;12.47;;;2.83;;
14722;SDS011;7452;55.594;12.986;2022-10-17T08:41:05;10.67;;;2.57;;
14722;SDS011;7452;55.594;12.986;2022-10-17T08:43:44;9.60;;;2.67;;
14722;SDS011;7452;55.594;12.986;2022-10-17T08:46:21;11.03;;;2.50;;
14722;SDS011;7452;55.594;12.986;2022-10-17T08:48:55;8.33;;;2.30;;
14722;SDS011;7452;55.594;12.986;2022-10-17T08:51:29;10.23;;;2.37;;
14722;SDS011;7452;55.594;12.986;2022-10-17T08:54:03;8.97;;;2.30;;
14722;SDS011;7452;55.594;12.986;2022-10-17T08:56:38;13.67;;;2.80;;
14722;SDS011;7452;55.594;12.986;2022-10-17T08:59:09;7.83;;;2.30;;
14722;SDS011;7452;55.594;12.986;2022-10-17T09:01:41;7.73;;;2.50;;
14722;SDS011;7452;55.594;12.986;2022-10-17T09:04:30;9.93;;;2.43;;
14722;SDS011;7452;55.594;12.986;2022-10-17T09:07:10;10.17;;;2.70;;
14722;SDS011;7452;55.594;12.986;2022-10-17T09:09:46;11.80;;;2.27;;
14722;SDS011;7452;55.594;12.986;2022-10-17T09:12:21;9.20;;;2.00;;
14722;SDS011;7452;55.594;12.986;2022-10-17T09:14:59;10.17;;;2.20;;
14722;SDS011;7452;55.594;12.986;2022-10-17T09:17:50;7.47;;;2.10;;
14722;SDS011;7452;55.594;12.986;2022-10-17T09:20:22;9.27;;;1.87;;
14722;SDS011;7452;55.594;12.986;2022-10-17T09:22:54;9.20;;;2.20;;
14722;SDS011;7452;55.594;12.986;2022-10-17T09:25:31;9.37;;;2.07;;
14722;SDS011;7452;55.594;12.986;2022-10-17T09:28:03;9.10;;;2.43;;
14722;SDS011;7452;55.594;12.986;2022-10-17T09:30:39;10.47;;;2.20;;
14722;SDS011;7452;55.594;12.986;2022-10-17T09:33:10;9.23;;;2.20;;
14722;SDS011;7452;55.594;12.986;2022-10-17T09:35:39;8.47;;;2.07;;
14722;SDS011;7452;55.594;12.986;2022-10-17T09:38:10;6.90;;;2.23;;
14722;SDS011;7452;55.594;12.986;2022-10-17T09:40:51;6.53;;;2.30;;
14722;SDS011;7452;55.594;12.986;2022-10-17T09:43:22;7.80;;;1.60;;
14722;SDS011;7452;55.594;12.986;2022-10-17T09:45:53;9.17;;;2.23;;
14722;SDS011;7452;55.594;12.986;2022-10-17T09:48:29;5.37;;;2.13;;
14722;SDS011;7452;55.594;12.986;2022-10-17T09:51:01;7.13;;;2.20;;
14722;SDS011;7452;55.594;12.986;2022-10-17T09:53:30;6.80;;;1.87;;
14722;SDS011;7452;55.594;12.986;2022-10-17T09:56:06;8.07;;;2.17;;
14722;SDS011;7452;55.594;12.986;2022-10-17T09:58:41;5.87;;;2.13;;
14722;SDS011;7452;55.594;12.986;2022-10-17T10:01:15;11.50;;;2.30;;
14722;SDS011;7452;55.594;12.986;2022-10-17T10:03:47;9.57;;;2.17;;
14722;SDS011;7452;55.594;12.986;2022-10-17T10:06:14;5.30;;;2.03;;
14722;SDS011;7452;55.594;12.986;2022-10-17T10:08:47;7.10;;;2.20;;
14722;SDS011;7452;55.594;12.986;2022-10-17T10:11:21;7.77;;;1.90;;
14722;SDS011;7452;55.594;12.986;2022-10-17T10:13:53;9.47;;;2.50;;
14722;SDS011;7452;55.594;12.986;2022-10-17T10:16:40;8.07;;;2.23;;
14722;SDS011;7452;55.594;12.986;2022-10-17T10:19:19;8.33;;;2.07;;
14722;SDS011;7452;55.594;12.986;2022-10-17T10:21:55;5.73;;;2.00;;
14722;SDS011;7452;55.594;12.986;2022-10-17T10:24:24;4.73;;;2.03;;
14722;SDS011;7452;55.594;12.986;2022-10-17T10:26:57;7.53;;;1.90;;
14722;SDS011;7452;55.594;12.986;2022-10-17T10:29:30;7.17;;;1.83;;
14722;SDS011;7452;55.594;12.986;2022-10-17T10:32:09;9.40;;;2.17;;
14722;SDS011;7452;55.594;12.986;2022-10-17T10:34:44;5.27;;;1.67;;
14722;SDS011;7452;55.594;12.986;2022-10-17T10:37:16;6.37;;;2.00;;
14722;SDS011;7452;55.594;12.986;2022-10-17T10:39:46;6.17;;;2.10;;
14722;SDS011;7452;55.594;12.986;2022-10-17T10:45:15;9.90;;;1.83;;
14722;SDS011;7452;55.594;12.986;2022-10-17T10:47:49;8.10;;;2.13;;
14722;SDS011;7452;55.594;12.986;2022-10-17T10:50:25;5.97;;;1.70;;
14722;SDS011;7452;55.594;12.986;2022-10-17T10:53:07;3.97;;;1.77;;
14722;SDS011;7452;55.594;12.986;2022-10-17T10:55:44;5.90;;;2.10;;
14722;SDS011;7452;55.594;12.986;2022-10-17T11:01:10;9.67;;;2.43;;
14722;SDS011;7452;55.594;12.986;2022-10-17T11:03:47;5.60;;;2.00;;
14722;SDS011;7452;55.594;12.986;2022-10-17T11:06:22;4.17;;;1.70;;
14722;SDS011;7452;55.594;12.986;2022-10-17T11:08:59;4.17;;;1.70;;
14722;SDS011;7452;55.594;12.986;2022-10-17T11:11:37;3.33;;;1.57;;
14722;SDS011;7452;55.594;12.986;2022-10-17T11:14:10;4.77;;;1.70;;
14722;SDS011;7452;55.594;12.986;2022-10-17T11:16:45;3.37;;;1.37;;
14722;SDS011;7452;55.594;12.986;2022-10-17T11:19:19;6.27;;;1.60;;
14722;SDS011;7452;55.594;12.986;2022-10-17T11:21:55;4.00;;;1.60;;
14722;SDS011;7452;55.594;12.986;2022-10-17T11:24:39;3.00;;;1.10;;
14722;SDS011;7452;55.594;12.986;2022-10-17T11:27:13;2.90;;;1.30;;
14722;SDS011;7452;55.594;12.986;2022-10-17T11:29:41;3.13;;;1.10;;
14722;SDS011;7452;55.594;12.986;2022-10-17T11:32:16;2.33;;;1.20;;
14722;SDS011;7452;55.594;12.986;2022-10-17T11:34:50;3.03;;;1.10;;
14722;SDS011;7452;55.594;12.986;2022-10-17T11:37:25;4.20;;;1.50;;
14722;SDS011;7452;55.594;12.986;2022-10-17T11:39:57;4.63;;;1.33;;
14722;SDS011;7452;55.594;12.986;2022-10-17T11:42:29;3.00;;;1.50;;
14722;SDS011;7452;55.594;12.986;2022-10-17T11:45:01;1.37;;;0.90;;
14722;SDS011;7452;55.594;12.986;2022-10-17T11:47:35;2.87;;;1.00;;
14722;SDS011;7452;55.594;12.986;2022-10-17T11:50:15;2.90;;;1.00;;
14722;SDS011;7452;55.594;12.986;2022-10-17T11:52:47;2.23;;;1.00;;
14722;SDS011;7452;55.594;12.986;2022-10-17T11:55:18;2.47;;;1.10;;
14722;SDS011;7452;55.594;12.986;2022-10-17T11:57:51;3.00;;;0.90;;
14722;SDS011;7452;55.594;12.986;2022-10-17T12:00:45;3.40;;;1.33;;
14722;SDS011;7452;55.594;12.986;2022-10-17T12:03:24;2.40;;;1.10;;
14722;SDS011;7452;55.594;12.986;2022-10-17T12:06:08;2.40;;;1.27;;
14722;SDS011;7452;55.594;12.986;2022-10-17T12:08:41;4.10;;;1.37;;
14722;SDS011;7452;55.594;12.986;2022-10-17T12:11:17;4.27;;;1.30;;
14722;SDS011;7452;55.594;12.986;2022-10-17T12:13:58;2.97;;;1.00;;
14722;SDS011;7452;55.594;12.986;2022-10-17T12:22:17;3.07;;;1.40;;
14722;SDS011;7452;55.594;12.986;2022-10-17T12:24:56;2.83;;;1.43;;
14722;SDS011;7452;55.594;12.986;2022-10-17T12:27:44;1.93;;;1.50;;
14722;SDS011;7452;55.594;12.986;2022-10-17T12:30:15;4.33;;;1.60;;
14722;SDS011;7452;55.594;12.986;2022-10-17T12:32:55;3.10;;;1.47;;
14722;SDS011;7452;55.594;12.986;2022-10-17T12:35:33;3.93;;;1.70;;
14722;SDS011;7452;55.594;12.986;2022-10-17T12:38:13;3.67;;;1.63;;
14722;SDS011;7452;55.594;12.986;2022-10-17T12:40:58;5.00;;;1.60;;
14722;SDS011;7452;55.594;12.986;2022-10-17T12:43:36;4.13;;;2.00;;
14722;SDS011;7452;55.594;12.986;2022-10-17T12:49:36;3.70;;;2.03;;
14722;SDS011;7452;55.594;12.986;2022-10-17T12:55:06;3.70;;;2.20;;
14722;SDS011;7452;55.594;12.986;2022-10-17T12:57:39;3.63;;;2.10;;
14722;SDS011;7452;55.594;12.986;2022-10-17T13:00:13;4.40;;;2.07;;
14722;SDS011;7452;55.594;12.986;2022-10-17T13:02:48;2.93;;;2.30;;
14722;SDS011;7452;55.594;12.986;2022-10-17T13:05:21;4.67;;;2.33;;
14722;SDS011;7452;55.594;12.986;2022-10-17T13:07:55;3.67;;;2.30;;
14722;SDS011;7452;55.594;12.986;2022-10-17T13:10:38;4.40;;;2.73;;
14722;SDS011;7452;55.594;12.986;2022-10-17T13:13:14;6.00;;;2.67;;
14722;SDS011;7452;55.594;12.986;2022-10-17T13:15:46;3.83;;;2.20;;
14722;SDS011;7452;55.594;12.986;2022-10-17T13:18:17;3.43;;;2.50;;
14722;SDS011;7452;55.594;12.986;2022-10-17T13:20:54;5.77;;;2.93;;
14722;SDS011;7452;55.594;12.986;2022-10-17T13:23:27;7.10;;;2.80;;
14722;SDS011;7452;55.594;12.986;2022-10-17T13:26:04;5.10;;;2.77;;
14722;SDS011;7452;55.594;12.986;2022-10-17T13:28:33;5.00;;;2.80;;
14722;SDS011;7452;55.594;12.986;2022-10-17T13:31:28;5.60;;;3.23;;
14722;SDS011;7452;55.594;12.986;2022-10-17T13:34:03;6.97;;;3.97;;
14722;SDS011;7452;55.594;12.986;2022-10-17T13:36:33;6.03;;;3.33;;
14722;SDS011;7452;55.594;12.986;2022-10-17T13:39:06;5.77;;;3.57;;
14722;SDS011;7452;55.594;12.986;2022-10-17T13:41:36;4.20;;;3.67;;
14722;SDS011;7452;55.594;12.986;2022-10-17T13:44:12;7.30;;;4.03;;
14722;SDS011;7452;55.594;12.986;2022-10-17T13:46:42;6.67;;;4.17;;
14722;SDS011;7452;55.594;12.986;2022-10-17T13:49:14;4.20;;;3.80;;
14722;SDS011;7452;55.594;12.986;2022-10-17T13:51:47;5.17;;;4.00;;
14722;SDS011;7452;55.594;12.986;2022-10-17T13:57:16;5.07;;;4.10;;
14722;SDS011;7452;55.594;12.986;2022-10-17T13:59:46;13.10;;;4.70;;
14722;SDS011;7452;55.594;12.986;2022-10-17T14:02:17;6.67;;;4.37;;
14722;SDS011;7452;55.594;12.986;2022-10-17T14:04:46;6.83;;;4.50;;
14722;SDS011;7452;55.594;12.986;2022-10-17T14:07:26;5.70;;;4.07;;
14722;SDS011;7452;55.594;12.986;2022-10-17T14:12:53;6.37;;;4.07;;
14722;SDS011;7452;55.594;12.986;2022-10-17T14:15:25;7.17;;;4.30;;
14722;SDS011;7452;55.594;12.986;2022-10-17T14:17:54;6.17;;;4.57;;
14722;SDS011;7452;55.594;12.986;2022-10-17T14:20:25;7.53;;;4.70;;
14722;SDS011;7452;55.594;12.986;2022-10-17T14:22:55;8.27;;;4.60;;
14722;SDS011;7452;55.594;12.986;2022-10-17T14:25:30;10.93;;;4.90;;
14722;SDS011;7452;55.594;12.986;2022-10-17T14:28:01;6.27;;;4.83;;
14722;SDS011;7452;55.594;12.986;2022-10-17T14:30:41;7.70;;;5.10;;
14722;SDS011;7452;55.594;12.986;2022-10-17T14:33:14;5.97;;;4.67;;
14722;SDS011;7452;55.594;12.986;2022-10-17T14:35:48;8.17;;;4.70;;
14722;SDS011;7452;55.594;12.986;2022-10-17T14:38:27;6.40;;;5.20;;
14722;SDS011;7452;55.594;12.986;2022-10-17T14:41:18;7.13;;;5.20;;
14722;SDS011;7452;55.594;12.986;2022-10-17T14:43:56;7.83;;;5.43;;
14722;SDS011;7452;55.594;12.986;2022-10-17T14:46:57;9.83;;;5.70;;
14722;SDS011;7452;55.594;12.986;2022-10-17T14:49:30;8.73;;;6.17;;
14722;SDS011;7452;55.594;12.986;2022-10-17T14:55:12;9.10;;;5.40;;
14722;SDS011;7452;55.594;12.986;2022-10-17T14:57:53;7.63;;;6.03;;
14722;SDS011;7452;55.594;12.986;2022-10-17T15:00:24;7.83;;;5.40;;
14722;SDS011;7452;55.594;12.986;2022-10-17T15:02:55;7.10;;;5.27;;
14722;SDS011;7452;55.594;12.986;2022-10-17T15:05:33;8.43;;;5.30;;
14722;SDS011;7452;55.594;12.986;2022-10-17T15:08:00;12.93;;;6.17;;
14722;SDS011;7452;55.594;12.986;2022-10-17T15:10:29;7.10;;;6.17;;
14722;SDS011;7452;55.594;12.986;2022-10-17T15:13:01;6.67;;;5.97;;
14722;SDS011;7452;55.594;12.986;2022-10-17T15:15:34;9.30;;;6.50;;
14722;SDS011;7452;55.594;12.986;2022-10-17T15:18:02;8.27;;;6.40;;
14722;SDS011;7452;55.594;12.986;2022-10-17T15:20:30;8.23;;;6.80;;
14722;SDS011;7452;55.594;12.986;2022-10-17T15:23:00;9.13;;;7.13;;
14722;SDS011;7452;55.594;12.986;2022-10-17T15:25:29;9.70;;;7.60;;
14722;SDS011;7452;55.594;12.986;2022-10-17T15:27:59;12.37;;;7.83;;
14722;SDS011;7452;55.594;12.986;2022-10-17T15:30:28;12.10;;;7.73;;
14722;SDS011;7452;55.594;12.986;2022-10-17T15:32:57;11.33;;;7.87;;
14722;SDS011;7452;55.594;12.986;2022-10-17T15:35:25;10.43;;;8.07;;
14722;SDS011;7452;55.594;12.986;2022-10-17T15:37:54;11.17;;;8.37;;
14722;SDS011;7452;55.594;12.986;2022-10-17T15:40:23;10.23;;;8.00;;
14722;SDS011;7452;55.594;12.986;2022-10-17T15:42:54;8.97;;;8.13;;